createdAt,value
2018-03-04T00:01:50.028Z,26.27
2018-03-04T00:04:17.549Z,26.47
2018-03-04T00:06:45.078Z,26.00
2018-03-04T00:09:12.589Z,24.73
2018-03-04T00:11:40.558Z,27.47
2018-03-04T00:14:08.476Z,29.33
2018-03-04T00:16:36.009Z,27.97
2018-03-04T00:19:03.907Z,27.50
2018-03-04T00:21:31.433Z,28.10
2018-03-04T00:23:58.970Z,29.83
2018-03-04T00:26:26.500Z,27.50
2018-03-04T00:28:54.008Z,29.23
2018-03-04T00:31:21.943Z,29.90
2018-03-04T00:33:49.459Z,28.50
2018-03-04T00:36:16.990Z,30.40
2018-03-04T00:38:44.891Z,30.70
2018-03-04T00:41:12.424Z,31.40
2018-03-04T00:43:40.421Z,31.57
2018-03-04T00:46:07.947Z,31.00
2018-03-04T00:48:35.944Z,30.47
2018-03-04T00:51:03.547Z,32.00
2018-03-04T00:53:31.160Z,30.57
2018-03-04T00:55:58.696Z,30.33
2018-03-04T00:58:26.595Z,32.43
2018-03-04T01:00:54.122Z,31.50
2018-03-04T01:03:21.638Z,31.90
2018-03-04T01:05:49.607Z,31.50
2018-03-04T01:08:17.121Z,30.60
2018-03-04T01:10:44.660Z,30.13
2018-03-04T01:13:12.575Z,30.30
2018-03-04T01:15:40.103Z,30.20
2018-03-04T01:18:07.662Z,31.97
2018-03-04T01:20:35.252Z,30.60
2018-03-04T01:23:02.762Z,30.80
2018-03-04T01:25:30.338Z,29.90
2018-03-04T01:27:57.865Z,29.07
2018-03-04T01:30:25.789Z,29.17
2018-03-04T01:32:53.327Z,28.73
2018-03-04T01:35:20.836Z,28.53
2018-03-04T01:37:48.364Z,29.60
2018-03-04T01:40:15.873Z,26.00
2018-03-04T01:42:43.799Z,30.17
2018-03-04T01:45:11.313Z,27.37
2018-03-04T01:47:38.848Z,29.00
2018-03-04T01:50:06.354Z,29.77
2018-03-04T01:52:33.995Z,24.93
2018-03-04T01:55:01.518Z,29.53
2018-03-04T01:57:29.456Z,28.37
2018-03-04T01:59:56.961Z,28.57
2018-03-04T02:02:24.896Z,28.13
2018-03-04T02:04:52.408Z,28.60
2018-03-04T02:07:19.943Z,29.00
2018-03-04T02:09:47.850Z,29.67
2018-03-04T02:12:15.398Z,29.07
2018-03-04T02:14:42.929Z,28.90
2018-03-04T02:17:10.491Z,28.07
2018-03-04T02:19:38.007Z,27.07
2018-03-04T02:22:05.547Z,28.10
2018-03-04T02:24:33.060Z,27.77
2018-03-04T02:27:00.600Z,26.97
2018-03-04T02:29:28.516Z,26.27
2018-03-04T02:31:56.065Z,26.97
2018-03-04T02:34:23.587Z,26.67
2018-03-04T02:36:51.550Z,27.17
2018-03-04T02:39:19.469Z,27.47
2018-03-04T02:41:47.012Z,26.90
2018-03-04T02:44:14.530Z,27.77
2018-03-04T02:46:42.051Z,28.70
2018-03-04T02:49:09.560Z,27.97
2018-03-04T02:51:37.494Z,27.83
2018-03-04T02:54:05.015Z,26.70
2018-03-04T02:56:32.677Z,28.70
2018-03-04T02:59:00.338Z,28.53
2018-03-04T03:01:27.840Z,29.97
2018-03-04T03:03:55.453Z,28.43
2018-03-04T03:06:22.959Z,29.00
2018-03-04T03:08:50.508Z,28.70
2018-03-04T03:11:18.021Z,27.17
2018-03-04T03:13:45.560Z,28.60
2018-03-04T03:16:13.090Z,31.00
2018-03-04T03:18:40.614Z,29.60
2018-03-04T03:21:08.135Z,30.47
2018-03-04T03:23:36.074Z,31.87
2018-03-04T03:26:03.605Z,31.93
2018-03-04T03:28:31.150Z,32.73
2018-03-04T03:30:58.749Z,32.53
2018-03-04T03:33:26.271Z,33.03
2018-03-04T03:35:53.875Z,30.50
2018-03-04T03:38:21.405Z,31.73
2018-03-04T03:40:48.911Z,32.63
2018-03-04T03:43:16.844Z,30.53
2018-03-04T03:45:44.356Z,31.77
2018-03-04T03:48:11.860Z,32.97
2018-03-04T03:50:39.487Z,31.77
2018-03-04T03:53:06.999Z,30.70
2018-03-04T03:55:34.994Z,35.17
2018-03-04T03:58:02.562Z,32.77
2018-03-04T04:00:30.091Z,33.47
2018-03-04T04:02:58.003Z,33.50
2018-03-04T04:05:25.535Z,33.20
2018-03-04T04:07:53.073Z,34.87
2018-03-04T04:10:21.005Z,31.47
2018-03-04T04:12:48.512Z,32.03
2018-03-04T04:15:16.052Z,31.30
2018-03-04T04:17:43.963Z,30.53
2018-03-04T04:20:11.496Z,28.73
2018-03-04T04:22:39.003Z,29.17
2018-03-04T04:25:06.527Z,28.77
2018-03-04T04:27:34.031Z,31.93
2018-03-04T04:30:01.575Z,32.43
2018-03-04T04:32:29.112Z,34.00
2018-03-04T04:34:57.016Z,31.30
2018-03-04T04:37:24.539Z,32.30
2018-03-04T04:39:52.055Z,31.77
2018-03-04T04:42:19.977Z,31.93
2018-03-04T04:44:47.481Z,34.20
2018-03-04T04:47:15.450Z,34.33
2018-03-04T04:49:43.376Z,31.30
2018-03-04T04:52:10.919Z,32.17
2018-03-04T04:54:38.484Z,33.40
2018-03-04T04:57:06.017Z,31.17
2018-03-04T04:59:33.535Z,31.20
2018-03-04T05:02:01.545Z,31.30
2018-03-04T05:04:29.191Z,33.30
2018-03-04T05:06:57.588Z,32.77
2018-03-04T05:09:25.096Z,33.53
2018-03-04T05:11:52.606Z,31.27
2018-03-04T05:14:20.146Z,31.33
2018-03-04T05:16:47.664Z,29.23
2018-03-04T05:19:15.200Z,30.37
2018-03-04T05:21:42.699Z,30.20
2018-03-04T05:24:10.647Z,28.37
2018-03-04T05:26:38.568Z,30.60
2018-03-04T05:29:06.091Z,30.27
2018-03-04T05:31:34.006Z,30.40
2018-03-04T05:34:01.665Z,30.40
2018-03-04T05:36:29.185Z,28.50
2018-03-04T05:38:57.115Z,29.90
2018-03-04T05:41:24.637Z,27.70
2018-03-04T05:43:52.166Z,26.33
2018-03-04T05:46:20.075Z,27.50
2018-03-04T05:48:47.618Z,29.30
2018-03-04T05:51:15.156Z,27.80
2018-03-04T05:53:42.693Z,28.37
2018-03-04T05:56:10.612Z,28.53
2018-03-04T05:58:38.152Z,29.37
2018-03-04T06:01:05.700Z,26.23
2018-03-04T06:03:33.639Z,26.73
2018-03-04T06:06:01.254Z,27.47
2018-03-04T06:08:28.763Z,26.27
2018-03-04T06:10:56.697Z,27.93
2018-03-04T06:13:24.216Z,27.13
2018-03-04T06:15:51.775Z,27.33
2018-03-04T06:18:19.287Z,25.57
2018-03-04T06:20:46.816Z,23.40
2018-03-04T06:23:14.354Z,27.53
2018-03-04T06:25:41.885Z,25.03
2018-03-04T06:28:09.786Z,25.20
2018-03-04T06:30:37.362Z,23.70
2018-03-04T06:33:04.871Z,23.50
2018-03-04T06:35:32.798Z,21.73
2018-03-04T06:38:00.303Z,22.20
2018-03-04T06:40:28.239Z,20.67
2018-03-04T06:42:55.750Z,21.80
2018-03-04T06:45:23.351Z,23.37
2018-03-04T06:47:50.869Z,20.80
2018-03-04T06:50:18.407Z,20.67
2018-03-04T06:52:45.916Z,19.37
2018-03-04T06:55:13.459Z,22.50
2018-03-04T06:57:40.984Z,21.50
2018-03-04T07:00:08.522Z,19.67
2018-03-04T07:02:36.440Z,19.03
2018-03-04T07:05:03.979Z,20.57
2018-03-04T07:07:31.523Z,18.90
2018-03-04T07:09:59.040Z,22.90
2018-03-04T07:12:26.571Z,30.23
2018-03-04T07:14:54.075Z,21.63
2018-03-04T07:17:22.082Z,17.17
2018-03-04T07:19:49.599Z,15.73
2018-03-04T07:22:17.527Z,15.50
2018-03-04T07:24:45.062Z,15.73
2018-03-04T07:27:12.605Z,17.33
2018-03-04T07:29:40.246Z,15.73
2018-03-04T07:32:07.779Z,14.60
2018-03-04T07:34:35.287Z,15.73
2018-03-04T07:37:02.859Z,15.20
2018-03-04T07:39:30.423Z,15.17
2018-03-04T07:41:58.007Z,13.30
2018-03-04T07:44:25.545Z,11.90
2018-03-04T07:46:53.082Z,13.97
2018-03-04T07:49:20.614Z,12.73
2018-03-04T07:51:48.525Z,12.37
2018-03-04T07:54:16.063Z,13.27
2018-03-04T07:56:43.567Z,13.37
2018-03-04T07:59:11.104Z,12.73
2018-03-04T08:01:38.652Z,12.83
2018-03-04T08:04:06.191Z,12.70
2018-03-04T08:06:33.708Z,13.87
2018-03-04T08:09:01.242Z,12.57
2018-03-04T08:11:28.811Z,12.77
2018-03-04T08:13:56.323Z,13.43
2018-03-04T08:16:23.847Z,14.23
2018-03-04T08:18:51.410Z,11.93
2018-03-04T08:21:18.912Z,11.60
2018-03-04T08:23:46.421Z,11.47
2018-03-04T08:26:26.250Z,13.77
2018-03-04T08:28:53.768Z,16.63
2018-03-04T08:31:21.296Z,19.23
2018-03-04T08:33:49.192Z,17.20
2018-03-04T08:36:16.741Z,15.60
2018-03-04T08:38:44.316Z,17.33
2018-03-04T08:41:11.861Z,16.63
2018-03-04T08:43:39.371Z,17.70
2018-03-04T08:46:06.999Z,15.40
2018-03-04T08:48:34.517Z,14.33
2018-03-04T08:51:02.444Z,16.27
2018-03-04T08:53:29.971Z,16.50
2018-03-04T08:55:57.504Z,15.77
2018-03-04T08:58:25.412Z,16.03
2018-03-04T09:00:53.039Z,16.67
2018-03-04T09:03:20.970Z,16.70
2018-03-04T09:05:48.479Z,17.57
2018-03-04T09:08:16.012Z,17.67
2018-03-04T09:10:43.620Z,17.27
2018-03-04T09:13:11.167Z,17.27
2018-03-04T09:15:39.268Z,14.70
2018-03-04T09:18:06.811Z,15.37
2018-03-04T09:20:34.331Z,14.70
2018-03-04T09:23:02.267Z,15.52
2018-03-04T09:25:29.789Z,14.75
2018-03-04T09:27:57.367Z,16.52
2018-03-04T09:30:24.875Z,16.67
2018-03-04T09:32:52.413Z,15.80
2018-03-04T09:35:20.343Z,16.63
2018-03-04T09:37:47.884Z,15.85
2018-03-04T09:40:15.400Z,17.73
2018-03-04T09:42:43.355Z,16.87
2018-03-04T09:45:10.882Z,16.20
2018-03-04T09:47:38.418Z,16.12
2018-03-04T09:50:05.935Z,15.50
2018-03-04T09:52:33.475Z,16.30
2018-03-04T09:55:00.996Z,16.10
2018-03-04T09:57:28.519Z,18.37
2018-03-04T09:59:56.456Z,17.98
2018-03-04T10:02:24.003Z,16.67
2018-03-04T10:04:51.538Z,16.30
2018-03-04T10:07:19.196Z,17.23
2018-03-04T10:09:46.731Z,17.83
2018-03-04T10:12:14.659Z,17.10
2018-03-04T10:14:42.207Z,15.80
2018-03-04T10:17:09.732Z,11.57
2018-03-04T10:19:37.271Z,10.75
2018-03-04T10:22:05.180Z,11.18
2018-03-04T10:24:32.708Z,15.00
2018-03-04T10:27:00.260Z,13.95
2018-03-04T10:29:28.192Z,12.73
2018-03-04T10:31:55.711Z,12.35
2018-03-04T10:34:23.251Z,10.38
2018-03-04T10:36:50.780Z,10.25
2018-03-04T10:39:18.291Z,10.93
2018-03-04T10:41:45.824Z,9.55
2018-03-04T10:44:13.355Z,6.50
2018-03-04T10:46:40.896Z,8.60
2018-03-04T10:49:08.403Z,6.43
2018-03-04T10:51:35.947Z,4.95
2018-03-04T10:54:03.850Z,6.40
2018-03-04T10:56:31.383Z,6.22
2018-03-04T10:58:59.060Z,7.62
2018-03-04T11:01:28.428Z,7.80
2018-03-04T11:03:56.515Z,6.87
2018-03-04T11:09:45.855Z,6.43
2018-03-04T11:12:13.409Z,5.97
2018-03-04T11:14:40.922Z,6.05
2018-03-04T11:17:08.511Z,4.63
2018-03-04T11:19:36.086Z,5.40
2018-03-04T11:22:03.619Z,5.67
2018-03-04T11:24:31.135Z,5.43
2018-03-04T11:26:59.071Z,5.80
2018-03-04T11:29:26.583Z,7.10
2018-03-04T11:31:54.112Z,7.37
2018-03-04T11:34:22.020Z,9.13
2018-03-04T11:36:49.579Z,8.43
2018-03-04T11:39:17.093Z,7.53
2018-03-04T11:41:44.627Z,7.90
2018-03-04T11:44:12.167Z,7.13
2018-03-04T11:46:39.684Z,6.37
2018-03-04T11:49:07.721Z,6.20
2018-03-04T11:51:35.339Z,6.47
2018-03-04T11:54:02.884Z,6.40
2018-03-04T11:56:30.396Z,5.50
2018-03-04T11:58:58.019Z,6.30
2018-03-04T12:01:25.625Z,7.93
2018-03-04T12:03:53.159Z,10.77
2018-03-04T12:06:20.769Z,9.50
2018-03-04T12:08:48.303Z,7.30
2018-03-04T12:11:15.831Z,6.53
2018-03-04T12:13:43.392Z,7.70
2018-03-04T12:16:10.891Z,7.50
2018-03-04T12:18:38.823Z,7.40
2018-03-04T12:21:06.319Z,7.30
2018-03-04T12:23:34.248Z,6.93
2018-03-04T12:26:01.775Z,6.67
2018-03-04T12:28:29.297Z,7.47
2018-03-04T12:30:57.195Z,7.43
2018-03-04T12:33:24.727Z,7.70
2018-03-04T12:35:52.627Z,5.97
2018-03-04T12:38:20.174Z,5.77
2018-03-04T12:40:47.684Z,6.47
2018-03-04T12:43:15.190Z,5.57
2018-03-04T12:45:42.722Z,7.43
2018-03-04T12:48:10.644Z,8.23
2018-03-04T12:50:38.171Z,7.23
2018-03-04T12:53:05.679Z,7.50
2018-03-04T12:55:33.265Z,7.13
2018-03-04T12:58:00.767Z,7.17
2018-03-04T13:00:28.324Z,5.73
2018-03-04T13:02:55.836Z,5.37
2018-03-04T13:05:23.758Z,5.23
2018-03-04T13:07:51.452Z,5.50
2018-03-04T13:10:18.986Z,5.10
2018-03-04T13:12:46.500Z,5.30
2018-03-04T13:15:14.032Z,5.20
2018-03-04T13:17:41.955Z,5.00
2018-03-04T13:20:09.483Z,5.83
2018-03-04T13:22:36.977Z,5.10
2018-03-04T13:25:04.497Z,4.90
2018-03-04T13:27:32.017Z,5.57
2018-03-04T13:29:59.553Z,5.20
2018-03-04T13:32:27.099Z,4.83
2018-03-04T13:34:54.616Z,4.97
2018-03-04T13:37:22.563Z,4.90
2018-03-04T13:39:50.072Z,5.57
2018-03-04T13:42:17.597Z,5.70
2018-03-04T13:44:45.491Z,5.40
2018-03-04T13:47:13.022Z,6.53
2018-03-04T13:49:40.563Z,5.70
2018-03-04T13:52:08.080Z,5.53
2018-03-04T13:54:35.606Z,6.90
2018-03-04T13:57:03.530Z,7.87
2018-03-04T13:59:31.041Z,7.40
2018-03-04T14:01:58.587Z,8.47
2018-03-04T14:04:26.487Z,9.53
2018-03-04T14:06:54.092Z,9.30
2018-03-04T14:09:22.008Z,9.23
2018-03-04T14:11:49.565Z,9.37
2018-03-04T14:14:17.079Z,9.27
2018-03-04T14:16:44.991Z,10.73
2018-03-04T14:19:12.528Z,11.30
2018-03-04T14:21:40.052Z,11.23
2018-03-04T14:24:07.582Z,11.17
2018-03-04T14:26:35.206Z,11.57
2018-03-04T14:29:02.735Z,10.03
2018-03-04T14:31:30.254Z,11.07
2018-03-04T14:33:57.787Z,10.83
2018-03-04T14:36:25.304Z,11.13
2018-03-04T14:38:52.839Z,10.47
2018-03-04T14:41:20.347Z,11.03
2018-03-04T14:43:48.333Z,12.10
2018-03-04T14:46:15.895Z,9.53
2018-03-04T14:48:43.421Z,10.33
2018-03-04T14:51:11.356Z,10.17
2018-03-04T14:53:38.881Z,10.27
2018-03-04T14:56:06.403Z,9.97
2018-03-04T14:58:34.308Z,9.87
2018-03-04T15:01:01.842Z,9.77
2018-03-04T15:03:29.358Z,9.07
2018-03-04T15:05:56.983Z,7.77
2018-03-04T15:08:24.499Z,7.07
2018-03-04T15:10:52.424Z,7.27
2018-03-04T15:13:19.934Z,6.40
2018-03-04T15:15:47.936Z,7.47
2018-03-04T15:18:16.211Z,7.90
2018-03-04T15:20:43.742Z,8.00
2018-03-04T15:23:11.646Z,9.53
2018-03-04T15:25:39.174Z,7.90
2018-03-04T15:28:06.790Z,9.70
2018-03-04T15:30:34.430Z,11.20
2018-03-04T15:33:01.992Z,11.23
2018-03-04T15:35:29.506Z,12.33
2018-03-04T15:37:57.439Z,12.13
2018-03-04T15:40:24.968Z,12.13
2018-03-04T15:42:52.509Z,12.23
2018-03-04T15:45:20.016Z,12.07
2018-03-04T15:47:47.555Z,10.90
2018-03-04T15:50:15.188Z,11.00
2018-03-04T15:52:42.723Z,10.93
2018-03-04T15:55:10.268Z,10.93
2018-03-04T15:57:38.188Z,11.13
2018-03-04T16:00:05.718Z,9.53
2018-03-04T16:02:33.255Z,10.63
2018-03-04T16:05:01.252Z,9.53
2018-03-04T16:07:28.778Z,10.33
2018-03-04T16:09:56.787Z,10.10
2018-03-04T16:12:24.452Z,12.23
2018-03-04T16:14:51.971Z,10.23
2018-03-04T16:17:19.974Z,9.80
2018-03-04T16:19:47.592Z,9.83
2018-03-04T16:22:15.508Z,9.33
2018-03-04T16:24:43.051Z,9.03
2018-03-04T16:27:10.556Z,8.30
2018-03-04T16:29:38.080Z,8.67
2018-03-04T16:32:05.672Z,7.90
2018-03-04T16:34:33.241Z,7.70
2018-03-04T16:37:01.292Z,9.60
2018-03-04T16:39:28.891Z,7.67
2018-03-04T16:41:56.798Z,8.00
2018-03-04T16:44:24.323Z,9.87
2018-03-04T16:46:52.228Z,9.73
2018-03-04T16:49:19.887Z,11.70
2018-03-04T16:51:47.407Z,12.17
2018-03-04T16:54:15.353Z,11.60
2018-03-04T16:56:42.863Z,11.50
2018-03-04T16:59:10.384Z,11.90
2018-03-04T17:01:38.330Z,10.57
2018-03-04T17:04:05.850Z,9.60
2018-03-04T17:06:33.425Z,12.10
2018-03-04T17:09:00.950Z,10.47
2018-03-04T17:11:28.499Z,10.73
2018-03-04T17:13:56.004Z,11.83
2018-03-04T17:16:23.703Z,10.30
2018-03-04T17:18:51.229Z,11.53
2018-03-04T17:21:18.782Z,11.83
2018-03-04T17:23:46.305Z,10.97
2018-03-04T17:26:13.839Z,11.80
2018-03-04T17:28:42.096Z,11.03
2018-03-04T17:31:10.033Z,10.70
2018-03-04T17:33:37.555Z,10.27
2018-03-04T17:36:05.098Z,10.57
2018-03-04T17:38:33.029Z,11.13
2018-03-04T17:41:00.536Z,11.33
2018-03-04T17:43:28.066Z,12.60
2018-03-04T17:45:56.084Z,10.13
2018-03-04T17:48:23.657Z,11.73
2018-03-04T17:50:51.178Z,11.47
2018-03-04T17:53:19.090Z,10.30
2018-03-04T17:55:46.631Z,12.70
2018-03-04T17:58:14.278Z,13.03
2018-03-04T18:00:41.839Z,12.13
2018-03-04T18:03:09.372Z,12.07
2018-03-04T18:05:37.271Z,12.33
2018-03-04T18:08:04.807Z,12.30
2018-03-04T18:10:32.320Z,11.90
2018-03-04T18:12:59.850Z,12.57
2018-03-04T18:15:27.374Z,11.33
2018-03-04T18:17:54.915Z,14.03
2018-03-04T18:20:22.916Z,13.77
2018-03-04T18:22:50.447Z,13.93
2018-03-04T18:25:18.444Z,19.40
2018-03-04T18:27:46.005Z,19.30
2018-03-04T18:30:13.515Z,27.07
2018-03-04T18:32:41.123Z,26.00
2018-03-04T18:35:08.635Z,28.50
2018-03-04T18:37:36.154Z,21.17
2018-03-04T18:40:03.696Z,33.37
2018-03-04T18:42:31.376Z,87.87
2018-03-04T18:44:59.023Z,21.23
2018-03-04T18:47:26.541Z,30.83
2018-03-04T18:49:54.485Z,26.40
2018-03-04T18:52:22.657Z,27.40
2018-03-04T18:58:22.228Z,16.70
2018-03-04T19:00:49.770Z,24.20
2018-03-04T19:03:17.682Z,17.80
2018-03-04T19:05:45.207Z,16.20
2018-03-04T19:08:12.723Z,17.37
2018-03-04T19:10:40.261Z,16.50
2018-03-04T19:13:07.776Z,16.30
2018-03-04T19:15:35.715Z,16.23
2018-03-04T19:18:03.226Z,17.20
2018-03-04T19:20:30.882Z,17.10
2018-03-04T19:22:58.492Z,16.00
2018-03-04T19:25:26.028Z,16.40
2018-03-04T19:27:53.553Z,16.30
2018-03-04T19:30:21.083Z,17.83
2018-03-04T19:32:49.016Z,18.10
2018-03-04T19:35:16.552Z,17.57
2018-03-04T19:37:44.064Z,17.07
2018-03-04T19:40:12.490Z,18.30
2018-03-04T19:42:40.010Z,17.03
2018-03-04T19:45:07.935Z,18.53
2018-03-04T19:47:35.464Z,19.70
2018-03-04T19:50:02.991Z,19.50
2018-03-04T19:52:30.894Z,18.17
2018-03-04T19:54:58.491Z,17.63
2018-03-04T19:57:26.003Z,17.93
2018-03-04T19:59:53.511Z,18.27
2018-03-04T20:02:21.039Z,17.90
2018-03-04T20:04:48.551Z,17.60
2018-03-04T20:07:16.496Z,19.77
2018-03-04T20:09:44.490Z,16.27
2018-03-04T20:12:12.426Z,13.87
2018-03-04T20:14:39.949Z,13.93
2018-03-04T20:17:07.485Z,13.73
2018-03-04T20:19:35.391Z,13.37
2018-03-04T20:22:03.051Z,13.63
2018-03-04T20:24:30.596Z,14.03
2018-03-04T20:26:58.179Z,15.23
2018-03-04T20:29:25.729Z,14.40
2018-03-04T20:31:53.291Z,16.73
2018-03-04T20:34:20.801Z,16.47
2018-03-04T20:36:48.724Z,15.77
2018-03-04T20:39:16.264Z,17.40
2018-03-04T20:41:43.793Z,17.00
2018-03-04T20:44:11.295Z,17.17
2018-03-04T20:46:38.818Z,15.83
2018-03-04T20:49:06.447Z,17.47
2018-03-04T20:51:34.415Z,14.63
2018-03-04T20:54:02.335Z,14.83
2018-03-04T20:56:29.895Z,14.73
2018-03-04T20:58:57.428Z,14.27
2018-03-04T21:01:24.935Z,15.03
2018-03-04T21:03:52.511Z,14.40
2018-03-04T21:06:20.428Z,16.90
2018-03-04T21:08:47.982Z,18.70
2018-03-04T21:11:15.503Z,19.63
2018-03-04T21:13:43.428Z,22.30
2018-03-04T21:16:10.946Z,21.53
2018-03-04T21:18:38.495Z,20.43
2018-03-04T21:21:06.418Z,20.53
2018-03-04T21:23:34.363Z,20.73
2018-03-04T21:26:01.889Z,21.27
2018-03-04T21:28:29.419Z,22.43
2018-03-04T21:30:57.344Z,21.00
2018-03-04T21:33:24.875Z,21.93
2018-03-04T21:35:52.403Z,22.67
2018-03-04T21:38:19.964Z,22.87
2018-03-04T21:40:47.872Z,22.70
2018-03-04T21:43:15.407Z,22.67
2018-03-04T21:45:43.313Z,23.13
2018-03-04T21:48:11.069Z,23.57
2018-03-04T21:50:38.580Z,22.10
2018-03-04T21:53:06.511Z,22.80
2018-03-04T21:55:34.051Z,21.57
2018-03-04T21:58:01.725Z,21.77
2018-03-04T22:00:29.315Z,20.30
2018-03-04T22:02:57.256Z,21.00
2018-03-04T22:05:24.758Z,20.47
2018-03-04T22:07:52.765Z,20.70
2018-03-04T22:10:20.278Z,19.77
2018-03-04T22:12:48.221Z,21.97
2018-03-04T22:15:15.725Z,20.43
2018-03-04T22:17:43.272Z,23.93
2018-03-04T22:20:11.172Z,23.97
2018-03-04T22:22:38.708Z,21.83
2018-03-04T22:25:06.219Z,21.70
2018-03-04T22:27:33.730Z,21.00
2018-03-04T22:30:01.260Z,19.93
2018-03-04T22:32:29.269Z,20.40
2018-03-04T22:34:56.836Z,20.60
2018-03-04T22:37:24.356Z,21.53
2018-03-04T22:39:52.298Z,21.00
2018-03-04T22:42:19.902Z,21.13
2018-03-04T22:44:47.454Z,21.63
2018-03-04T22:47:15.354Z,20.27
2018-03-04T22:49:42.895Z,21.23
2018-03-04T22:52:10.425Z,21.23
2018-03-04T22:54:38.351Z,21.07
2018-03-04T22:57:05.874Z,21.03
2018-03-04T22:59:33.415Z,22.17
2018-03-04T23:02:01.331Z,21.33
2018-03-04T23:04:29.279Z,21.67
2018-03-04T23:06:56.791Z,21.33
2018-03-04T23:09:24.695Z,21.03
2018-03-04T23:11:52.238Z,22.83
2018-03-04T23:14:19.758Z,22.40
2018-03-04T23:16:47.307Z,22.60
2018-03-04T23:19:14.815Z,22.87
2018-03-04T23:21:42.361Z,23.27
2018-03-04T23:24:10.648Z,23.30
2018-03-04T23:26:38.224Z,23.47
2018-03-04T23:29:05.768Z,22.73
2018-03-04T23:31:33.308Z,24.47
2018-03-04T23:34:01.211Z,22.07
2018-03-04T23:36:28.733Z,22.87
2018-03-04T23:38:56.644Z,22.90
2018-03-04T23:41:24.188Z,23.47
2018-03-04T23:43:51.693Z,23.10
2018-03-04T23:46:19.251Z,22.13
2018-03-04T23:48:46.766Z,23.13
2018-03-04T23:51:14.291Z,22.43
2018-03-04T23:53:42.231Z,23.60
2018-03-04T23:56:09.766Z,21.47
2018-03-04T23:58:37.413Z,22.40
